createdAt,value
2018-01-04T00:00:41.108Z,0
2018-01-04T00:01:50.046Z,0
2018-01-04T00:02:59.004Z,0
2018-01-04T00:04:07.964Z,0
2018-01-04T00:05:16.642Z,0
2018-01-04T00:06:25.853Z,0
2018-01-04T00:07:34.789Z,0
2018-01-04T00:08:44.501Z,0
2018-01-04T00:09:53.967Z,0
2018-01-04T00:11:03.689Z,0
2018-01-04T00:12:12.629Z,0
2018-01-04T00:13:21.571Z,0
2018-01-04T00:14:31.033Z,0
2018-01-04T00:15:39.963Z,0
2018-01-04T00:16:48.643Z,0
2018-01-04T00:17:58.622Z,0
2018-01-04T00:19:07.563Z,0
2018-01-04T00:20:17.013Z,0
2018-01-04T00:21:25.974Z,0
2018-01-04T00:22:34.922Z,0
2018-01-04T00:23:43.628Z,0
2018-01-04T00:24:52.824Z,0
2018-01-04T00:26:02.301Z,0
2018-01-04T00:27:11.503Z,0
2018-01-04T00:28:20.196Z,0
2018-01-04T00:29:29.144Z,0
2018-01-04T00:30:38.606Z,0
2018-01-04T00:31:47.534Z,0
2018-01-04T00:32:56.463Z,0
2018-01-04T00:34:05.673Z,0
2018-01-04T00:35:15.142Z,0
2018-01-04T00:36:24.336Z,0
2018-01-04T00:37:33.018Z,0
2018-01-04T00:38:42.220Z,0
2018-01-04T00:39:51.151Z,0
2018-01-04T00:41:00.880Z,0
2018-01-04T00:42:10.593Z,0
2018-01-04T00:43:19.805Z,0
2018-01-04T00:44:29.000Z,0
2018-01-04T00:45:37.941Z,0
2018-01-04T00:46:46.883Z,0
2018-01-04T00:47:55.564Z,0
2018-01-04T00:49:04.501Z,0
2018-01-04T00:50:13.993Z,0
2018-01-04T00:51:22.901Z,0
2018-01-04T00:52:32.364Z,0
2018-01-04T00:53:41.039Z,0
2018-01-04T00:54:50.252Z,0
2018-01-04T00:55:59.187Z,0
2018-01-04T00:57:08.912Z,0
2018-01-04T00:58:17.589Z,0
2018-01-04T00:59:26.524Z,0
2018-01-04T01:00:35.990Z,0
2018-01-04T01:01:44.676Z,0
2018-01-04T01:02:53.605Z,0
2018-01-04T01:04:02.546Z,0
2018-01-04T01:05:11.482Z,0
2018-01-04T01:06:20.159Z,0
2018-01-04T01:07:29.104Z,0
2018-01-04T01:08:38.297Z,0
2018-01-04T01:09:47.244Z,0
2018-01-04T01:10:56.437Z,0
2018-01-04T01:14:37.723Z,0
2018-01-04T01:18:19.540Z,0
2018-01-04T01:19:28.485Z,0
2018-01-04T01:20:37.688Z,0
2018-01-04T01:28:07.512Z,0
2018-01-04T01:29:16.853Z,0
2018-01-04T01:30:26.060Z,0
2018-01-04T01:31:34.746Z,0
2018-01-04T01:32:43.428Z,0
2018-01-04T01:33:52.620Z,0
2018-01-04T01:35:01.297Z,0
2018-01-04T01:36:10.490Z,0
2018-01-04T01:37:19.768Z,0
2018-01-04T01:38:28.954Z,0
2018-01-04T01:39:38.152Z,0
2018-01-04T01:40:47.346Z,0
2018-01-04T01:41:56.292Z,0
2018-01-04T01:43:05.229Z,0
2018-01-04T01:44:14.426Z,0
2018-01-04T01:45:23.626Z,0
2018-01-04T01:46:33.104Z,0
2018-01-04T01:47:42.295Z,0
2018-01-04T01:48:51.494Z,0
2018-01-04T01:50:00.448Z,0
2018-01-04T01:51:09.636Z,0
2018-01-04T01:52:19.090Z,0
2018-01-04T01:53:27.757Z,0
2018-01-04T01:54:36.426Z,0
2018-01-04T01:55:45.641Z,0
2018-01-04T01:56:55.088Z,0
2018-01-04T01:58:04.287Z,0
2018-01-04T01:59:13.242Z,0
2018-01-04T02:00:22.186Z,0
2018-01-04T02:01:31.124Z,0
2018-01-04T02:02:40.058Z,0
2018-01-04T02:03:49.272Z,0
2018-01-04T02:04:57.942Z,0
2018-01-04T02:06:07.140Z,0
2018-01-04T02:07:15.810Z,0
2018-01-04T02:08:24.484Z,0
2018-01-04T02:09:33.938Z,0
2018-01-04T02:10:42.619Z,0
2018-01-04T02:11:51.807Z,0
2018-01-04T02:13:01.013Z,0
2018-01-04T02:14:10.225Z,0
2018-01-04T02:15:19.681Z,0
2018-01-04T02:16:28.615Z,0
2018-01-04T02:17:37.816Z,0
2018-01-04T02:18:47.271Z,0
2018-01-04T02:19:56.472Z,0
2018-01-04T02:21:05.427Z,0
2018-01-04T02:22:14.628Z,0
2018-01-04T02:23:23.638Z,0
2018-01-04T02:24:32.318Z,0
2018-01-04T02:25:41.262Z,0
2018-01-04T02:26:50.484Z,0
2018-01-04T02:27:59.693Z,0
2018-01-04T02:29:08.632Z,0
2018-01-04T02:30:18.087Z,0
2018-01-04T02:31:27.563Z,0
2018-01-04T02:32:36.515Z,0
2018-01-04T02:33:45.969Z,0
2018-01-04T02:34:55.165Z,0
2018-01-04T02:36:04.353Z,0
2018-01-04T02:37:13.030Z,0
2018-01-04T02:38:21.984Z,0
2018-01-04T02:39:31.258Z,0
2018-01-04T02:40:40.194Z,0
2018-01-04T02:41:48.884Z,0
2018-01-04T02:42:57.834Z,0
2018-01-04T02:44:07.288Z,0
2018-01-04T02:45:16.500Z,0
2018-01-04T02:46:25.703Z,0
2018-01-04T02:47:35.437Z,0
2018-01-04T02:48:44.636Z,0
2018-01-04T02:49:53.845Z,0
2018-01-04T02:51:03.047Z,0
2018-01-04T02:52:12.240Z,0
2018-01-04T02:53:20.920Z,0
2018-01-04T02:54:29.874Z,0
2018-01-04T02:55:38.557Z,0
2018-01-04T02:56:47.754Z,0
2018-01-04T02:57:56.961Z,0
2018-01-04T02:59:06.422Z,0
2018-01-04T03:00:15.357Z,0
2018-01-04T03:01:24.300Z,0
2018-01-04T03:02:33.238Z,0
2018-01-04T03:03:42.433Z,0
2018-01-04T03:04:51.111Z,0
2018-01-04T03:06:00.042Z,0
2018-01-04T03:07:09.502Z,0
2018-01-04T03:08:18.173Z,0
2018-01-04T03:09:27.369Z,0
2018-01-04T03:10:36.847Z,0
2018-01-04T03:11:46.059Z,0
2018-01-04T03:12:55.259Z,0
2018-01-04T03:14:03.941Z,0
2018-01-04T03:15:13.398Z,0
2018-01-04T03:16:22.340Z,0
2018-01-04T03:17:31.546Z,0
2018-01-04T03:18:40.217Z,0
2018-01-04T03:19:49.679Z,0
2018-01-04T03:20:59.154Z,0
2018-01-04T03:22:08.104Z,0
2018-01-04T03:23:17.823Z,0
2018-01-04T03:24:26.767Z,0
2018-01-04T03:25:35.974Z,0
2018-01-04T03:26:44.918Z,0
2018-01-04T03:27:53.587Z,0
2018-01-04T03:29:02.811Z,0
2018-01-04T03:30:11.773Z,0
2018-01-04T03:31:20.973Z,0
2018-01-04T03:32:30.439Z,0
2018-01-04T03:33:39.644Z,0
2018-01-04T03:34:48.849Z,0
2018-01-04T03:35:57.808Z,0
2018-01-04T03:37:07.007Z,0
2018-01-04T03:38:16.208Z,0
2018-01-04T03:39:25.156Z,0
2018-01-04T03:40:34.618Z,0
2018-01-04T03:41:43.549Z,0
2018-01-04T03:42:53.014Z,0
2018-01-04T03:44:01.948Z,0
2018-01-04T03:45:11.143Z,0
2018-01-04T03:46:20.337Z,0
2018-01-04T03:47:29.028Z,0
2018-01-04T03:48:37.964Z,0
2018-01-04T03:50:12.586Z,0
2018-01-04T03:51:22.303Z,0
2018-01-04T03:52:31.244Z,0
2018-01-04T03:53:40.449Z,0
2018-01-04T03:54:49.664Z,0
2018-01-04T03:55:58.343Z,0
2018-01-04T03:57:07.288Z,0
2018-01-04T03:58:16.229Z,0
2018-01-04T03:59:25.744Z,0
2018-01-04T04:00:34.954Z,0
2018-01-04T04:01:43.895Z,0
2018-01-04T04:02:53.093Z,0
2018-01-04T04:04:02.559Z,0
2018-01-04T04:05:12.287Z,0
2018-01-04T04:06:21.492Z,0
2018-01-04T04:07:30.166Z,0
2018-01-04T04:08:39.378Z,0
2018-01-04T04:09:48.325Z,0
2018-01-04T04:10:57.017Z,0
2018-01-04T04:12:06.226Z,0
2018-01-04T04:13:15.441Z,0
2018-01-04T04:14:24.381Z,0
2018-01-04T04:15:33.852Z,0
2018-01-04T04:16:43.054Z,0
2018-01-04T04:17:52.018Z,0
2018-01-04T04:19:01.215Z,0
2018-01-04T04:20:10.155Z,0
2018-01-04T04:21:19.095Z,0
2018-01-04T04:22:27.772Z,0
2018-01-04T04:23:36.981Z,0
2018-01-04T04:24:45.666Z,0
2018-01-04T04:25:54.614Z,0
2018-01-04T04:27:04.087Z,0
2018-01-04T04:28:13.292Z,0
2018-01-04T04:29:21.983Z,0
2018-01-04T04:30:31.187Z,0
2018-01-04T04:31:40.127Z,0
2018-01-04T04:32:49.588Z,0
2018-01-04T04:33:58.529Z,0
2018-01-04T04:35:07.474Z,0
2018-01-04T04:36:16.418Z,0
2018-01-04T04:37:25.685Z,0
2018-01-04T04:38:34.364Z,0
2018-01-04T04:39:43.051Z,0
2018-01-04T04:40:52.329Z,0
2018-01-04T04:42:01.565Z,0
2018-01-04T04:43:10.512Z,0
2018-01-04T04:44:19.455Z,0
2018-01-04T04:45:28.394Z,0
2018-01-04T04:46:37.597Z,0
2018-01-04T04:47:46.278Z,0
2018-01-04T04:48:55.484Z,0
2018-01-04T04:50:04.680Z,0
2018-01-04T04:51:13.900Z,0
2018-01-04T04:52:22.578Z,0
2018-01-04T04:53:32.061Z,0
2018-01-04T04:54:41.000Z,0
2018-01-04T04:55:50.212Z,0
2018-01-04T04:56:59.687Z,0
2018-01-04T04:58:08.629Z,0
2018-01-04T04:59:17.568Z,0
2018-01-04T05:00:27.037Z,0
2018-01-04T05:01:35.984Z,0
2018-01-04T05:02:44.927Z,0
2018-01-04T05:03:54.139Z,0
2018-01-04T05:05:03.355Z,0
2018-01-04T05:06:12.029Z,0
2018-01-04T05:07:20.965Z,0
2018-01-04T05:08:29.907Z,0
2018-01-04T05:09:39.122Z,0
2018-01-04T05:10:48.069Z,0
2018-01-04T05:11:56.747Z,0
2018-01-04T05:13:05.686Z,0
2018-01-04T05:14:14.643Z,0
2018-01-04T05:15:23.843Z,0
2018-01-04T05:16:33.312Z,0
2018-01-04T05:17:42.007Z,0
2018-01-04T05:18:51.205Z,0
2018-01-04T05:20:00.153Z,0
2018-01-04T05:21:09.105Z,0
2018-01-04T05:22:18.575Z,0
2018-01-04T05:23:27.788Z,0
2018-01-04T05:24:36.755Z,0
2018-01-04T05:25:45.696Z,0
2018-01-04T05:26:54.392Z,0
2018-01-04T05:28:03.591Z,0
2018-01-04T05:29:12.795Z,0
2018-01-04T05:30:21.736Z,0
2018-01-04T05:31:30.940Z,0
2018-01-04T05:32:39.629Z,0
2018-01-04T05:33:48.624Z,0
2018-01-04T05:34:57.576Z,0
2018-01-04T05:36:06.517Z,0
2018-01-04T05:37:15.454Z,0
2018-01-04T05:38:24.221Z,0
2018-01-04T05:39:33.958Z,0
2018-01-04T05:40:42.905Z,0
2018-01-04T05:41:51.875Z,0
2018-01-04T05:43:01.090Z,0
2018-01-04T05:44:09.766Z,0
2018-01-04T05:45:18.709Z,0
2018-01-04T05:46:27.919Z,0
2018-01-04T05:47:37.136Z,0
2018-01-04T05:48:46.075Z,0
2018-01-04T05:49:55.544Z,0
2018-01-04T05:51:05.013Z,0
2018-01-04T05:52:13.956Z,0
2018-01-04T05:53:22.900Z,0
2018-01-04T05:54:31.840Z,0
2018-01-04T05:55:41.052Z,0
2018-01-04T05:56:50.004Z,0
2018-01-04T05:57:58.948Z,0
2018-01-04T05:59:08.144Z,0
2018-01-04T06:00:17.621Z,0
2018-01-04T06:01:26.305Z,0
2018-01-04T06:02:34.984Z,0
2018-01-04T06:03:44.535Z,0
2018-01-04T06:04:53.474Z,0
2018-01-04T06:06:02.415Z,0
2018-01-04T06:07:11.363Z,0
2018-01-04T06:08:20.824Z,0
2018-01-04T06:09:29.765Z,0
2018-01-04T06:10:38.969Z,0
2018-01-04T06:11:48.428Z,0
2018-01-04T06:12:57.630Z,0
2018-01-04T06:14:07.162Z,0
2018-01-04T06:15:16.117Z,0
2018-01-04T06:16:25.066Z,0
2018-01-04T06:17:34.722Z,0
2018-01-04T06:18:43.664Z,0
2018-01-04T06:19:53.134Z,0
2018-01-04T06:21:01.836Z,0
2018-01-04T06:22:11.310Z,0
2018-01-04T06:23:20.280Z,0
2018-01-04T06:24:29.234Z,0
2018-01-04T06:25:38.754Z,0
2018-01-04T06:26:47.689Z,0
2018-01-04T06:27:56.891Z,0
2018-01-04T06:29:05.826Z,0
2018-01-04T06:30:14.767Z,0
2018-01-04T06:31:23.753Z,0
2018-01-04T06:32:33.070Z,0
2018-01-04T06:33:42.011Z,0
2018-01-04T06:34:50.692Z,0
2018-01-04T06:35:59.903Z,0
2018-01-04T06:37:08.853Z,0
2018-01-04T06:38:18.592Z,0
2018-01-04T06:39:28.054Z,0
2018-01-04T06:40:37.514Z,0
2018-01-04T06:41:46.466Z,0
2018-01-04T06:42:55.149Z,0
2018-01-04T06:44:04.638Z,0
2018-01-04T06:45:14.368Z,0
2018-01-04T06:46:23.579Z,0
2018-01-04T06:47:32.828Z,0
2018-01-04T06:48:41.520Z,0
2018-01-04T06:49:50.734Z,0
2018-01-04T06:50:59.684Z,0
2018-01-04T06:52:08.653Z,0
2018-01-04T06:53:17.845Z,0
2018-01-04T06:54:27.582Z,0
2018-01-04T06:55:37.053Z,0
2018-01-04T06:56:45.740Z,0
2018-01-04T06:57:54.944Z,0
2018-01-04T06:59:03.625Z,0
2018-01-04T07:00:12.305Z,0
2018-01-04T07:01:21.775Z,0
2018-01-04T07:02:30.735Z,0
2018-01-04T07:03:39.421Z,0
2018-01-04T07:04:48.104Z,0
2018-01-04T07:05:57.053Z,0
2018-01-04T07:07:06.534Z,0
2018-01-04T07:08:16.014Z,0
2018-01-04T07:09:24.698Z,0
2018-01-04T07:10:33.660Z,0
2018-01-04T07:11:42.610Z,0
2018-01-04T07:12:51.820Z,0
2018-01-04T07:14:00.771Z,0
2018-01-04T07:15:09.984Z,4
2018-01-04T07:16:19.188Z,4
2018-01-04T07:17:27.868Z,4
2018-01-04T07:18:36.819Z,4
2018-01-04T07:19:45.758Z,4
2018-01-04T07:20:54.975Z,4
2018-01-04T07:22:04.196Z,4
2018-01-04T07:23:13.402Z,8
2018-01-04T07:24:22.338Z,4
2018-01-04T07:25:31.544Z,4
2018-01-04T07:26:40.762Z,8
2018-01-04T07:27:49.968Z,8
2018-01-04T07:28:58.924Z,12
2018-01-04T07:30:07.615Z,12
2018-01-04T07:31:17.088Z,8
2018-01-04T07:32:26.041Z,8
2018-01-04T07:33:34.727Z,12
2018-01-04T07:34:43.668Z,12
2018-01-04T07:35:52.882Z,12
2018-01-04T07:37:02.355Z,12
2018-01-04T07:38:11.566Z,12
2018-01-04T07:39:20.515Z,16
2018-01-04T07:40:29.757Z,16
2018-01-04T07:41:39.227Z,16
2018-01-04T07:42:47.918Z,20
2018-01-04T07:43:57.383Z,20
2018-01-04T07:45:06.321Z,20
2018-01-04T07:46:15.526Z,24
2018-01-04T07:47:24.216Z,24
2018-01-04T07:48:33.480Z,24
2018-01-04T07:49:42.423Z,28
2018-01-04T07:50:51.372Z,28
2018-01-04T07:52:00.307Z,32
2018-01-04T07:53:09.260Z,28
2018-01-04T07:54:18.803Z,32
2018-01-04T07:55:27.489Z,32
2018-01-04T07:56:36.687Z,36
2018-01-04T07:57:45.892Z,36
2018-01-04T07:58:54.861Z,40
2018-01-04T08:00:04.592Z,36
2018-01-04T08:01:13.272Z,40
2018-01-04T08:02:22.483Z,40
2018-01-04T08:03:31.723Z,44
2018-01-04T08:04:40.927Z,48
2018-01-04T08:05:50.157Z,56
2018-01-04T08:06:59.364Z,56
2018-01-04T08:08:09.091Z,64
2018-01-04T08:09:18.302Z,64
2018-01-04T08:10:27.774Z,64
2018-01-04T08:11:37.289Z,60
2018-01-04T08:12:46.513Z,60
2018-01-04T08:13:55.517Z,60
2018-01-04T08:15:05.503Z,56
2018-01-04T08:16:14.978Z,64
2018-01-04T08:17:24.177Z,76
2018-01-04T08:18:33.114Z,76
2018-01-04T08:19:42.055Z,76
2018-01-04T08:20:50.777Z,76
2018-01-04T08:21:59.995Z,84
2018-01-04T08:23:09.205Z,84
2018-01-04T08:24:18.429Z,76
2018-01-04T08:25:27.636Z,72
2018-01-04T08:26:37.112Z,72
2018-01-04T08:27:46.338Z,64
2018-01-04T08:28:55.282Z,60
2018-01-04T08:30:04.488Z,60
2018-01-04T08:31:13.695Z,72
2018-01-04T08:32:22.638Z,80
2018-01-04T08:33:31.598Z,92
2018-01-04T08:34:40.807Z,72
2018-01-04T08:35:50.118Z,72
2018-01-04T08:36:59.642Z,100
2018-01-04T08:38:09.107Z,104
2018-01-04T08:39:18.578Z,116
2018-01-04T08:40:28.358Z,120
2018-01-04T08:41:37.319Z,116
2018-01-04T08:42:46.595Z,124
2018-01-04T08:43:56.336Z,144
2018-01-04T08:45:05.829Z,136
2018-01-04T08:46:15.027Z,140
2018-01-04T08:47:23.990Z,140
2018-01-04T08:48:33.211Z,132
2018-01-04T08:49:42.687Z,120
2018-01-04T08:50:51.967Z,108
2018-01-04T08:52:01.195Z,124
2018-01-04T08:53:10.447Z,124
2018-01-04T08:54:19.399Z,120
2018-01-04T08:55:28.342Z,120
2018-01-04T08:56:37.825Z,128
2018-01-04T08:57:46.770Z,136
2018-01-04T08:58:55.990Z,144
2018-01-04T09:00:05.218Z,152
2018-01-04T09:01:14.157Z,140
2018-01-04T09:02:23.092Z,132
2018-01-04T09:03:32.050Z,128
2018-01-04T09:04:41.268Z,140
2018-01-04T09:05:50.477Z,140
2018-01-04T09:06:59.689Z,144
2018-01-04T09:08:09.153Z,132
2018-01-04T09:09:18.113Z,120
2018-01-04T09:10:27.318Z,132
2018-01-04T09:11:36.525Z,144
2018-01-04T09:12:45.723Z,156
2018-01-04T09:13:54.939Z,168
2018-01-04T09:15:04.171Z,168
2018-01-04T09:16:13.122Z,160
2018-01-04T09:17:22.347Z,148
2018-01-04T09:18:31.605Z,148
2018-01-04T09:19:40.555Z,164
2018-01-04T09:20:49.767Z,164
2018-01-04T09:21:58.715Z,152
2018-01-04T09:23:07.915Z,204
2018-01-04T09:24:16.865Z,244
2018-01-04T09:25:26.370Z,248
2018-01-04T09:26:36.710Z,244
2018-01-04T09:27:45.782Z,224
2018-01-04T09:28:54.457Z,208
2018-01-04T09:30:03.669Z,192
2018-01-04T09:31:13.508Z,160
2018-01-04T09:32:22.748Z,144
2018-01-04T09:33:31.711Z,148
2018-01-04T09:34:40.679Z,172
2018-01-04T09:35:49.645Z,176
2018-01-04T09:36:58.341Z,188
2018-01-04T09:38:07.300Z,192
2018-01-04T09:39:16.053Z,196
2018-01-04T09:40:24.733Z,208
2018-01-04T09:41:33.761Z,224
2018-01-04T09:42:42.975Z,232
2018-01-04T09:43:52.193Z,232
2018-01-04T09:45:01.399Z,216
2018-01-04T09:46:10.088Z,204
2018-01-04T09:47:18.779Z,212
2018-01-04T09:48:27.801Z,236
2018-01-04T09:49:37.016Z,244
2018-01-04T09:50:46.040Z,224
2018-01-04T09:51:55.470Z,228
2018-01-04T09:53:04.704Z,248
2018-01-04T09:54:13.907Z,252
2018-01-04T09:55:23.949Z,260
2018-01-04T09:56:33.437Z,264
2018-01-04T09:57:42.409Z,276
2018-01-04T09:58:51.873Z,284
2018-01-04T10:00:00.647Z,272
2018-01-04T10:01:09.864Z,252
2018-01-04T10:02:19.115Z,248
2018-01-04T10:03:28.347Z,256
2018-01-04T10:04:37.588Z,268
2018-01-04T10:05:46.824Z,276
2018-01-04T10:06:56.288Z,288
2018-01-04T10:08:05.753Z,304
2018-01-04T10:09:14.990Z,320
2018-01-04T10:10:23.959Z,332
2018-01-04T10:11:33.159Z,348
2018-01-04T10:12:42.905Z,360
2018-01-04T10:13:51.858Z,372
2018-01-04T10:15:01.086Z,380
2018-01-04T10:16:10.289Z,376
2018-01-04T10:17:19.496Z,380
2018-01-04T10:18:28.961Z,380
2018-01-04T10:19:37.916Z,376
2018-01-04T10:20:46.865Z,384
2018-01-04T10:21:55.800Z,392
2018-01-04T10:23:05.029Z,412
2018-01-04T10:24:14.250Z,436
2018-01-04T10:25:23.554Z,464
2018-01-04T10:26:32.232Z,500
2018-01-04T10:27:40.924Z,544
2018-01-04T10:28:50.452Z,600
2018-01-04T10:29:59.657Z,656
2018-01-04T10:31:08.600Z,680
2018-01-04T10:32:18.060Z,688
2018-01-04T10:33:26.773Z,724
2018-01-04T10:34:36.241Z,792
2018-01-04T10:35:45.445Z,840
2018-01-04T10:36:54.383Z,844
2018-01-04T10:38:03.587Z,788
2018-01-04T10:39:12.792Z,740
2018-01-04T10:40:21.471Z,732
2018-01-04T10:41:30.159Z,732
2018-01-04T10:42:39.383Z,740
2018-01-04T10:43:48.079Z,724
2018-01-04T10:44:57.040Z,720
2018-01-04T10:46:06.510Z,740
2018-01-04T10:47:15.722Z,752
2018-01-04T10:48:24.987Z,724
2018-01-04T10:49:33.936Z,644
2018-01-04T10:50:42.877Z,608
2018-01-04T10:51:52.087Z,608
2018-01-04T10:53:01.035Z,608
2018-01-04T10:54:10.243Z,588
2018-01-04T10:55:19.211Z,576
2018-01-04T10:56:28.162Z,540
2018-01-04T10:57:37.883Z,548
2018-01-04T10:58:47.608Z,540
2018-01-04T10:59:56.299Z,492
2018-01-04T11:01:05.240Z,452
2018-01-04T11:02:14.715Z,456
2018-01-04T11:03:23.662Z,448
2018-01-04T11:04:33.124Z,432
2018-01-04T11:05:41.810Z,556
2018-01-04T11:06:50.749Z,676
2018-01-04T11:07:59.955Z,712
2018-01-04T11:09:09.289Z,692
2018-01-04T11:10:17.963Z,600
2018-01-04T11:11:27.458Z,516
2018-01-04T11:12:36.402Z,484
2018-01-04T11:13:45.090Z,488
2018-01-04T11:14:54.550Z,488
2018-01-04T11:16:04.013Z,480
2018-01-04T11:17:13.483Z,492
2018-01-04T11:18:22.948Z,480
2018-01-04T11:19:32.154Z,460
2018-01-04T11:20:41.359Z,468
2018-01-04T11:21:50.817Z,452
2018-01-04T11:23:00.038Z,468
2018-01-04T11:24:09.500Z,504
2018-01-04T11:25:18.447Z,552
2018-01-04T11:26:27.645Z,588
2018-01-04T11:27:36.882Z,584
2018-01-04T11:28:46.083Z,548
2018-01-04T11:29:55.292Z,608
2018-01-04T11:31:04.236Z,592
2018-01-04T11:32:13.446Z,580
2018-01-04T11:33:22.384Z,568
2018-01-04T11:34:31.336Z,632
2018-01-04T11:35:40.537Z,696
2018-01-04T11:36:49.210Z,724
2018-01-04T11:37:58.760Z,688
2018-01-04T11:39:07.464Z,644
2018-01-04T11:40:16.408Z,548
2018-01-04T11:41:25.626Z,532
2018-01-04T11:42:35.106Z,504
2018-01-04T11:43:44.311Z,484
2018-01-04T11:44:53.778Z,504
2018-01-04T11:46:02.751Z,488
2018-01-04T11:47:11.698Z,452
2018-01-04T11:48:20.892Z,480
2018-01-04T11:49:29.915Z,500
2018-01-04T11:50:38.880Z,504
2018-01-04T11:51:48.094Z,488
2018-01-04T11:52:57.292Z,476
2018-01-04T11:54:06.229Z,444
2018-01-04T11:55:15.165Z,396
2018-01-04T11:56:24.113Z,384
2018-01-04T11:57:33.048Z,428
2018-01-04T11:58:42.276Z,444
2018-01-04T11:59:51.491Z,488
2018-01-04T12:01:00.709Z,544
2018-01-04T12:02:09.659Z,600
2018-01-04T12:03:18.871Z,540
2018-01-04T12:04:27.559Z,580
2018-01-04T12:05:36.768Z,636
2018-01-04T12:06:45.991Z,680
2018-01-04T12:07:54.942Z,732
2018-01-04T12:09:03.883Z,720
2018-01-04T12:10:12.837Z,656
2018-01-04T12:11:22.041Z,604
2018-01-04T12:12:30.740Z,556
2018-01-04T12:13:39.691Z,508
2018-01-04T12:14:48.373Z,472
2018-01-04T12:15:57.309Z,456
2018-01-04T12:17:06.518Z,468
2018-01-04T12:18:15.733Z,496
2018-01-04T12:19:24.699Z,500
2018-01-04T12:20:33.652Z,520
2018-01-04T12:21:42.602Z,552
2018-01-04T12:22:51.547Z,580
2018-01-04T12:24:00.483Z,572
2018-01-04T12:25:09.702Z,576
2018-01-04T12:26:18.649Z,528
2018-01-04T12:27:27.849Z,460
2018-01-04T12:28:36.800Z,412
2018-01-04T12:29:46.263Z,392
2018-01-04T12:30:55.722Z,376
2018-01-04T12:32:04.673Z,356
2018-01-04T12:33:15.308Z,352
2018-01-04T12:34:24.955Z,348
2018-01-04T12:35:34.468Z,344
2018-01-04T12:36:43.663Z,356
2018-01-04T12:37:52.888Z,364
2018-01-04T12:39:01.831Z,344
2018-01-04T12:40:11.402Z,320
2018-01-04T12:41:20.080Z,284
2018-01-04T12:42:28.828Z,244
2018-01-04T12:43:37.860Z,216
2018-01-04T12:44:47.058Z,228
2018-01-04T12:45:55.995Z,240
2018-01-04T12:47:05.060Z,256
2018-01-04T12:48:14.795Z,264
2018-01-04T12:49:24.278Z,280
2018-01-04T12:50:33.740Z,296
2018-01-04T12:51:43.220Z,284
2018-01-04T12:52:52.240Z,292
2018-01-04T12:54:00.930Z,304
2018-01-04T12:55:09.618Z,336
2018-01-04T12:56:19.546Z,384
2018-01-04T12:57:29.031Z,420
2018-01-04T12:58:37.971Z,432
2018-01-04T12:59:47.498Z,452
2018-01-04T13:00:56.797Z,460
2018-01-04T13:02:05.616Z,488
2018-01-04T13:03:15.152Z,552
2018-01-04T13:04:24.634Z,560
2018-01-04T13:05:33.943Z,556
2018-01-04T13:06:43.260Z,528
2018-01-04T13:07:52.823Z,520
2018-01-04T13:09:02.584Z,500
2018-01-04T13:10:11.342Z,468
2018-01-04T13:11:20.303Z,448
2018-01-04T13:12:29.241Z,424
2018-01-04T13:13:38.836Z,416
2018-01-04T13:14:48.379Z,404
2018-01-04T13:15:57.383Z,364
2018-01-04T13:17:07.043Z,384
2018-01-04T13:18:15.865Z,388
2018-01-04T13:19:25.157Z,384
2018-01-04T13:20:34.904Z,416
2018-01-04T13:21:43.601Z,412
2018-01-04T13:22:53.083Z,384
2018-01-04T13:24:02.295Z,408
2018-01-04T13:25:11.665Z,408
2018-01-04T13:26:21.442Z,412
2018-01-04T13:27:31.010Z,424
2018-01-04T13:28:39.975Z,420
2018-01-04T13:29:48.660Z,424
2018-01-04T13:30:57.880Z,448
2018-01-04T13:32:07.630Z,428
2018-01-04T13:33:17.310Z,392
2018-01-04T13:34:26.276Z,384
2018-01-04T13:35:35.489Z,376
2018-01-04T13:36:45.067Z,412
2018-01-04T13:37:54.866Z,412
2018-01-04T13:39:03.540Z,284
2018-01-04T13:40:12.492Z,288
2018-01-04T13:41:21.966Z,292
2018-01-04T13:42:31.177Z,296
2018-01-04T13:43:39.866Z,292
2018-01-04T13:44:48.550Z,232
2018-01-04T13:45:58.289Z,240
2018-01-04T13:47:07.495Z,284
2018-01-04T13:48:16.518Z,316
2018-01-04T13:49:25.724Z,252
2018-01-04T13:50:34.715Z,268
2018-01-04T13:51:43.658Z,304
2018-01-04T13:52:52.854Z,228
2018-01-04T13:54:01.535Z,184
2018-01-04T13:55:11.010Z,228
2018-01-04T13:56:19.700Z,196
2018-01-04T13:57:28.951Z,204
2018-01-04T13:58:38.137Z,236
2018-01-04T13:59:47.083Z,240
2018-01-04T14:00:55.768Z,252
2018-01-04T14:02:04.976Z,264
2018-01-04T14:03:13.923Z,216
2018-01-04T14:04:23.208Z,240
2018-01-04T14:05:32.538Z,228
2018-01-04T14:06:41.786Z,212
2018-01-04T14:07:51.627Z,192
2018-01-04T14:09:00.563Z,172
2018-01-04T14:10:09.556Z,148
2018-01-04T14:11:19.353Z,160
2018-01-04T14:12:28.574Z,148
2018-01-04T14:13:37.521Z,132
2018-01-04T14:14:46.458Z,116
2018-01-04T14:15:55.507Z,140
2018-01-04T14:17:04.307Z,124
2018-01-04T14:18:13.249Z,124
2018-01-04T14:19:22.727Z,128
2018-01-04T14:20:32.459Z,144
2018-01-04T14:21:42.235Z,148
2018-01-04T14:22:51.575Z,124
2018-01-04T14:24:00.807Z,112
2018-01-04T14:25:10.195Z,108
2018-01-04T14:26:19.462Z,104
2018-01-04T14:27:28.779Z,124
2018-01-04T14:28:37.618Z,96
2018-01-04T14:29:47.082Z,84
2018-01-04T14:30:55.786Z,100
2018-01-04T14:32:05.475Z,84
2018-01-04T14:33:14.704Z,76
2018-01-04T14:34:23.655Z,72
2018-01-04T14:35:32.684Z,72
2018-01-04T14:36:41.897Z,84
2018-01-04T14:37:50.841Z,88
2018-01-04T14:38:59.802Z,92
2018-01-04T14:40:08.760Z,72
2018-01-04T14:41:17.715Z,100
2018-01-04T14:42:27.878Z,128
2018-01-04T14:43:37.097Z,152
2018-01-04T14:44:47.409Z,144
2018-01-04T14:45:56.456Z,164
2018-01-04T14:47:05.980Z,192
2018-01-04T14:48:15.495Z,172
2018-01-04T14:49:24.441Z,168
2018-01-04T14:50:33.683Z,168
2018-01-04T14:51:43.149Z,164
2018-01-04T14:52:52.673Z,176
2018-01-04T14:54:02.024Z,164
2018-01-04T14:55:11.520Z,136
2018-01-04T14:56:20.731Z,108
2018-01-04T14:57:30.936Z,92
2018-01-04T14:58:40.425Z,72
2018-01-04T14:59:50.336Z,56
2018-01-04T15:00:59.048Z,68
2018-01-04T15:02:08.000Z,56
2018-01-04T15:03:17.022Z,56
2018-01-04T15:04:26.282Z,44
2018-01-04T15:05:35.235Z,28
2018-01-04T15:06:44.179Z,24
2018-01-04T15:07:53.396Z,24
2018-01-04T15:09:02.351Z,20
2018-01-04T15:10:11.297Z,20
2018-01-04T15:11:20.791Z,16
2018-01-04T15:12:30.005Z,32
2018-01-04T15:13:39.210Z,64
2018-01-04T15:14:48.157Z,68
2018-01-04T15:15:57.110Z,72
2018-01-04T15:17:05.811Z,72
2018-01-04T15:18:15.034Z,68
2018-01-04T15:19:24.009Z,64
2018-01-04T15:20:33.218Z,60
2018-01-04T15:21:41.903Z,52
2018-01-04T15:22:50.596Z,48
2018-01-04T15:23:59.547Z,44
2018-01-04T15:25:08.772Z,48
2018-01-04T15:26:17.721Z,36
2018-01-04T15:27:27.200Z,40
2018-01-04T15:28:36.407Z,44
2018-01-04T15:29:45.871Z,36
2018-01-04T15:30:54.859Z,40
2018-01-04T15:32:03.807Z,32
2018-01-04T15:33:12.765Z,28
2018-01-04T15:34:21.977Z,24
2018-01-04T15:35:31.035Z,20
2018-01-04T15:36:39.966Z,20
2018-01-04T15:37:49.182Z,20
2018-01-04T15:38:57.878Z,20
2018-01-04T15:40:07.113Z,16
2018-01-04T15:41:16.559Z,16
2018-01-04T15:42:25.243Z,16
2018-01-04T15:43:34.282Z,12
2018-01-04T15:44:43.496Z,12
2018-01-04T15:45:52.959Z,12
2018-01-04T15:47:01.986Z,8
2018-01-04T15:48:11.200Z,4
2018-01-04T15:49:20.392Z,4
2018-01-04T15:50:29.857Z,4
2018-01-04T15:51:39.066Z,4
2018-01-04T15:52:48.350Z,4
2018-01-04T15:53:57.048Z,4
2018-01-04T15:55:06.530Z,4
2018-01-04T15:56:15.741Z,4
2018-01-04T15:57:24.422Z,4
2018-01-04T15:58:33.628Z,0
2018-01-04T15:59:42.833Z,0
2018-01-04T16:00:51.772Z,0
2018-01-04T16:02:00.991Z,0
2018-01-04T16:03:09.944Z,0
2018-01-04T16:04:19.440Z,0
2018-01-04T16:05:28.143Z,0
2018-01-04T16:06:37.439Z,0
2018-01-04T16:07:46.134Z,0
2018-01-04T16:08:55.643Z,0
2018-01-04T16:10:04.876Z,0
2018-01-04T16:11:14.094Z,0
2018-01-04T16:12:23.318Z,0
2018-01-04T16:13:32.539Z,0
2018-01-04T16:14:41.250Z,0
2018-01-04T16:15:50.725Z,0
2018-01-04T16:17:00.479Z,0
2018-01-04T16:18:09.456Z,0
2018-01-04T16:19:18.175Z,0
2018-01-04T16:20:27.129Z,0
2018-01-04T16:21:36.370Z,0
2018-01-04T16:22:45.328Z,0
2018-01-04T16:23:54.995Z,0
2018-01-04T16:25:04.224Z,0
2018-01-04T16:26:12.914Z,0
2018-01-04T16:27:22.392Z,0
2018-01-04T16:28:31.405Z,0
2018-01-04T16:29:40.307Z,0
2018-01-04T16:30:49.259Z,0
2018-01-04T16:31:59.017Z,0
2018-01-04T16:33:07.717Z,0
2018-01-04T16:34:16.977Z,0
2018-01-04T16:35:26.452Z,0
2018-01-04T16:36:35.937Z,0
2018-01-04T16:37:45.161Z,0
2018-01-04T16:38:54.116Z,0
2018-01-04T16:40:03.585Z,0
2018-01-04T16:41:12.530Z,0
2018-01-04T16:42:21.759Z,0